sensor_id;sensor_type;location;lat;lon;timestamp;pressure;altitude;pressure_sealevel;temperature;humidity
54936;BME280;40838;50.676;7.838;2023-08-07T00:00:04;97916.81;;;9.89;100.00
54936;BME280;40838;50.676;7.838;2023-08-07T00:02:34;97918.28;;;9.75;100.00
54936;BME280;40838;50.676;7.838;2023-08-07T00:05:08;97909.94;;;9.88;100.00
54936;BME280;40838;50.676;7.838;2023-08-07T00:07:40;97918.94;;;9.92;100.00
54936;BME280;40838;50.676;7.838;2023-08-07T00:10:07;97914.25;;;10.05;100.00
54936;BME280;40838;50.676;7.838;2023-08-07T00:12:34;97910.88;;;10.14;100.00
54936;BME280;40838;50.676;7.838;2023-08-07T00:15:03;97910.28;;;10.07;100.00
54936;BME280;40838;50.676;7.838;2023-08-07T00:17:30;97914.09;;;10.27;100.00
54936;BME280;40838;50.676;7.838;2023-08-07T00:20:27;97907.25;;;10.36;100.00
54936;BME280;40838;50.676;7.838;2023-08-07T00:25:36;97918.03;;;10.24;100.00
54936;BME280;40838;50.676;7.838;2023-08-07T00:28:02;97908.22;;;10.14;100.00
54936;BME280;40838;50.676;7.838;2023-08-07T00:30:41;97895.31;;;10.23;100.00
54936;BME280;40838;50.676;7.838;2023-08-07T00:33:10;97906.09;;;10.11;100.00
54936;BME280;40838;50.676;7.838;2023-08-07T00:35:38;97900.50;;;10.02;100.00
54936;BME280;40838;50.676;7.838;2023-08-07T00:38:05;97899.97;;;10.00;100.00
54936;BME280;40838;50.676;7.838;2023-08-07T00:40:41;97900.00;;;10.11;100.00
54936;BME280;40838;50.676;7.838;2023-08-07T00:43:07;97909.28;;;10.18;100.00
54936;BME280;40838;50.676;7.838;2023-08-07T00:45:34;97895.34;;;10.38;100.00
54936;BME280;40838;50.676;7.838;2023-08-07T00:48:01;97892.25;;;9.99;100.00
54936;BME280;40838;50.676;7.838;2023-08-07T00:50:28;97899.69;;;10.02;100.00
54936;BME280;40838;50.676;7.838;2023-08-07T00:52:58;97899.97;;;10.00;100.00
54936;BME280;40838;50.676;7.838;2023-08-07T00:55:39;97902.28;;;9.92;100.00
54936;BME280;40838;50.676;7.838;2023-08-07T00:58:05;97898.25;;;9.84;100.00
54936;BME280;40838;50.676;7.838;2023-08-07T01:00:32;97907.38;;;10.03;100.00
54936;BME280;40838;50.676;7.838;2023-08-07T01:03:00;97905.34;;;9.73;100.00
54936;BME280;40838;50.676;7.838;2023-08-07T01:05:27;97904.34;;;9.85;100.00
54936;BME280;40838;50.676;7.838;2023-08-07T01:08:04;97909.84;;;9.78;100.00
54936;BME280;40838;50.676;7.838;2023-08-07T01:10:50;97905.19;;;9.90;100.00
54936;BME280;40838;50.676;7.838;2023-08-07T01:13:34;97904.94;;;9.92;100.00
54936;BME280;40838;50.676;7.838;2023-08-07T01:16:04;97911.56;;;9.94;100.00
54936;BME280;40838;50.676;7.838;2023-08-07T01:18:35;97900.88;;;9.84;100.00
54936;BME280;40838;50.676;7.838;2023-08-07T01:21:04;97907.81;;;9.90;100.00
54936;BME280;40838;50.676;7.838;2023-08-07T01:23:34;97911.81;;;9.88;100.00
54936;BME280;40838;50.676;7.838;2023-08-07T01:26:01;97915.47;;;9.87;100.00
54936;BME280;40838;50.676;7.838;2023-08-07T01:28:45;97907.94;;;9.68;100.00
54936;BME280;40838;50.676;7.838;2023-08-07T01:31:14;97910.88;;;9.72;100.00
54936;BME280;40838;50.676;7.838;2023-08-07T01:33:43;97914.06;;;9.74;100.00
54936;BME280;40838;50.676;7.838;2023-08-07T01:36:13;97918.66;;;9.89;100.00
54936;BME280;40838;50.676;7.838;2023-08-07T01:38:53;97921.50;;;9.82;100.00
54936;BME280;40838;50.676;7.838;2023-08-07T01:44:16;97930.44;;;9.71;100.00
54936;BME280;40838;50.676;7.838;2023-08-07T01:46:45;97924.41;;;9.80;100.00
54936;BME280;40838;50.676;7.838;2023-08-07T01:49:11;97933.13;;;9.81;100.00
54936;BME280;40838;50.676;7.838;2023-08-07T01:51:38;97937.09;;;9.46;100.00
54936;BME280;40838;50.676;7.838;2023-08-07T01:54:07;97933.22;;;9.91;100.00
54936;BME280;40838;50.676;7.838;2023-08-07T01:56:35;97930.84;;;9.95;100.00
54936;BME280;40838;50.676;7.838;2023-08-07T01:59:02;97936.91;;;9.90;100.00
54936;BME280;40838;50.676;7.838;2023-08-07T02:01:30;97939.13;;;10.09;100.00
54936;BME280;40838;50.676;7.838;2023-08-07T02:04:07;97940.59;;;9.89;100.00
54936;BME280;40838;50.676;7.838;2023-08-07T02:06:34;97936.44;;;9.98;100.00
54936;BME280;40838;50.676;7.838;2023-08-07T02:09:02;97936.38;;;9.93;100.00
54936;BME280;40838;50.676;7.838;2023-08-07T02:14:15;97933.66;;;9.83;100.00
54936;BME280;40838;50.676;7.838;2023-08-07T02:16:45;97950.16;;;9.95;100.00
54936;BME280;40838;50.676;7.838;2023-08-07T02:19:12;97937.41;;;9.87;100.00
54936;BME280;40838;50.676;7.838;2023-08-07T02:21:40;97949.28;;;9.85;100.00
54936;BME280;40838;50.676;7.838;2023-08-07T02:24:06;97933.22;;;9.91;100.00
54936;BME280;40838;50.676;7.838;2023-08-07T02:26:47;97944.19;;;9.73;100.00
54936;BME280;40838;50.676;7.838;2023-08-07T02:29:26;97947.31;;;9.70;100.00
54936;BME280;40838;50.676;7.838;2023-08-07T02:31:56;97949.22;;;9.74;100.00
54936;BME280;40838;50.676;7.838;2023-08-07T02:34:24;97947.81;;;9.67;100.00
54936;BME280;40838;50.676;7.838;2023-08-07T02:36:52;97951.31;;;9.72;100.00
54936;BME280;40838;50.676;7.838;2023-08-07T02:39:20;97948.97;;;9.76;100.00
54936;BME280;40838;50.676;7.838;2023-08-07T02:41:47;97957.66;;;9.71;100.00
54936;BME280;40838;50.676;7.838;2023-08-07T02:44:19;97952.03;;;9.63;100.00
54936;BME280;40838;50.676;7.838;2023-08-07T02:46:49;97956.59;;;9.72;100.00
54936;BME280;40838;50.676;7.838;2023-08-07T02:49:16;97960.53;;;9.70;100.00
54936;BME280;40838;50.676;7.838;2023-08-07T02:51:48;97953.69;;;9.74;100.00
54936;BME280;40838;50.676;7.838;2023-08-07T02:57:44;97951.66;;;9.49;100.00
54936;BME280;40838;50.676;7.838;2023-08-07T03:00:29;97948.56;;;9.57;100.00
54936;BME280;40838;50.676;7.838;2023-08-07T03:03:24;97948.31;;;9.58;100.00
54936;BME280;40838;50.676;7.838;2023-08-07T03:06:20;97947.81;;;9.62;100.00
54936;BME280;40838;50.676;7.838;2023-08-07T03:08:48;97945.66;;;9.58;100.00
54936;BME280;40838;50.676;7.838;2023-08-07T03:11:19;97958.25;;;9.46;100.00
54936;BME280;40838;50.676;7.838;2023-08-07T03:13:54;97949.44;;;9.68;100.00
54936;BME280;40838;50.676;7.838;2023-08-07T03:16:30;97951.75;;;9.59;100.00
54936;BME280;40838;50.676;7.838;2023-08-07T03:18:58;97948.03;;;9.60;100.00
54936;BME280;40838;50.676;7.838;2023-08-07T03:21:26;97947.63;;;9.73;100.00
54936;BME280;40838;50.676;7.838;2023-08-07T03:23:53;97950.44;;;9.62;100.00
54936;BME280;40838;50.676;7.838;2023-08-07T03:26:19;97949.16;;;9.69;100.00
54936;BME280;40838;50.676;7.838;2023-08-07T03:28:47;97958.63;;;9.60;100.00
54936;BME280;40838;50.676;7.838;2023-08-07T03:31:14;97955.25;;;9.70;100.00
54936;BME280;40838;50.676;7.838;2023-08-07T03:39:01;97957.81;;;9.60;100.00
54936;BME280;40838;50.676;7.838;2023-08-07T03:41:29;97957.78;;;9.54;100.00
54936;BME280;40838;50.676;7.838;2023-08-07T03:43:58;97958.91;;;9.64;100.00
54936;BME280;40838;50.676;7.838;2023-08-07T03:46:25;97958.88;;;9.58;100.00
54936;BME280;40838;50.676;7.838;2023-08-07T03:51:56;97963.47;;;9.73;100.00
54936;BME280;40838;50.676;7.838;2023-08-07T03:54:26;97960.06;;;9.78;100.00
54936;BME280;40838;50.676;7.838;2023-08-07T03:56:52;97960.34;;;9.81;100.00
54936;BME280;40838;50.676;7.838;2023-08-07T03:59:19;97965.53;;;9.66;100.00
54936;BME280;40838;50.676;7.838;2023-08-07T04:01:45;97961.88;;;9.72;100.00
54936;BME280;40838;50.676;7.838;2023-08-07T04:04:12;97967.66;;;9.69;100.00
54936;BME280;40838;50.676;7.838;2023-08-07T04:06:38;97967.44;;;9.71;100.00
54936;BME280;40838;50.676;7.838;2023-08-07T04:09:09;97978.00;;;9.71;100.00
54936;BME280;40838;50.676;7.838;2023-08-07T04:11:37;97966.63;;;9.70;100.00
54936;BME280;40838;50.676;7.838;2023-08-07T04:14:04;97959.63;;;9.86;100.00
54936;BME280;40838;50.676;7.838;2023-08-07T04:16:31;97968.91;;;9.89;100.00
54936;BME280;40838;50.676;7.838;2023-08-07T04:18:57;97965.97;;;9.53;100.00
54936;BME280;40838;50.676;7.838;2023-08-07T04:21:24;97971.03;;;9.27;100.00
54936;BME280;40838;50.676;7.838;2023-08-07T04:23:50;97973.38;;;9.24;100.00
54936;BME280;40838;50.676;7.838;2023-08-07T04:26:25;97974.69;;;9.21;100.00
54936;BME280;40838;50.676;7.838;2023-08-07T04:28:53;97971.75;;;9.18;100.00
54936;BME280;40838;50.676;7.838;2023-08-07T04:31:19;97983.56;;;9.10;100.00
54936;BME280;40838;50.676;7.838;2023-08-07T04:33:46;97977.53;;;9.15;100.00
54936;BME280;40838;50.676;7.838;2023-08-07T04:36:12;97978.06;;;9.17;100.00
54936;BME280;40838;50.676;7.838;2023-08-07T04:38:43;97982.22;;;9.40;100.00
54936;BME280;40838;50.676;7.838;2023-08-07T04:41:10;97973.06;;;9.20;100.00
54936;BME280;40838;50.676;7.838;2023-08-07T04:43:38;97976.81;;;9.24;100.00
54936;BME280;40838;50.676;7.838;2023-08-07T04:46:08;97988.09;;;9.15;100.00
54936;BME280;40838;50.676;7.838;2023-08-07T04:48:34;97989.41;;;9.44;100.00
54936;BME280;40838;50.676;7.838;2023-08-07T04:51:01;97982.84;;;9.52;100.00
54936;BME280;40838;50.676;7.838;2023-08-07T04:53:29;97995.22;;;9.46;100.00
54936;BME280;40838;50.676;7.838;2023-08-07T04:55:55;97992.13;;;9.54;100.00
54936;BME280;40838;50.676;7.838;2023-08-07T04:58:22;97995.72;;;9.43;100.00
54936;BME280;40838;50.676;7.838;2023-08-07T05:00:53;98003.31;;;9.34;100.00
54936;BME280;40838;50.676;7.838;2023-08-07T05:03:22;98006.09;;;9.23;100.00
54936;BME280;40838;50.676;7.838;2023-08-07T05:05:48;98006.50;;;9.37;100.00
54936;BME280;40838;50.676;7.838;2023-08-07T05:08:18;98003.53;;;9.28;100.00
54936;BME280;40838;50.676;7.838;2023-08-07T05:10:44;98003.13;;;9.41;100.00
54936;BME280;40838;50.676;7.838;2023-08-07T05:13:11;98017.56;;;9.33;100.00
54936;BME280;40838;50.676;7.838;2023-08-07T05:15:37;98009.59;;;9.55;100.00
54936;BME280;40838;50.676;7.838;2023-08-07T05:18:07;98005.91;;;9.56;100.00
54936;BME280;40838;50.676;7.838;2023-08-07T05:20:36;98017.41;;;9.45;100.00
54936;BME280;40838;50.676;7.838;2023-08-07T05:23:03;98016.56;;;9.40;100.00
54936;BME280;40838;50.676;7.838;2023-08-07T05:25:31;98024.56;;;9.45;100.00
54936;BME280;40838;50.676;7.838;2023-08-07T05:27:58;98019.13;;;9.29;100.00
54936;BME280;40838;50.676;7.838;2023-08-07T05:30:27;98029.88;;;9.23;100.00
54936;BME280;40838;50.676;7.838;2023-08-07T05:32:54;98037.97;;;9.38;100.00
54936;BME280;40838;50.676;7.838;2023-08-07T05:35:36;98035.31;;;9.38;100.00
54936;BME280;40838;50.676;7.838;2023-08-07T05:38:08;98025.97;;;9.57;100.00
54936;BME280;40838;50.676;7.838;2023-08-07T05:40:35;98033.94;;;9.63;100.00
54936;BME280;40838;50.676;7.838;2023-08-07T05:43:02;98031.69;;;9.44;100.00
54936;BME280;40838;50.676;7.838;2023-08-07T05:45:28;98033.72;;;9.37;100.00
54936;BME280;40838;50.676;7.838;2023-08-07T05:47:55;98037.91;;;9.33;100.00
54936;BME280;40838;50.676;7.838;2023-08-07T05:50:35;98035.63;;;9.42;100.00
54936;BME280;40838;50.676;7.838;2023-08-07T05:53:02;98044.56;;;9.41;100.00
54936;BME280;40838;50.676;7.838;2023-08-07T05:55:31;98046.41;;;9.40;100.00
54936;BME280;40838;50.676;7.838;2023-08-07T05:57:57;98045.34;;;9.36;100.00
54936;BME280;40838;50.676;7.838;2023-08-07T06:00:24;98059.41;;;9.42;100.00
54936;BME280;40838;50.676;7.838;2023-08-07T06:02:50;98051.19;;;9.38;100.00
54936;BME280;40838;50.676;7.838;2023-08-07T06:05:19;98043.44;;;9.58;100.00
54936;BME280;40838;50.676;7.838;2023-08-07T06:07:49;98054.31;;;9.62;100.00
54936;BME280;40838;50.676;7.838;2023-08-07T06:10:23;98059.25;;;9.53;100.00
54936;BME280;40838;50.676;7.838;2023-08-07T06:12:55;98056.63;;;9.31;100.00
54936;BME280;40838;50.676;7.838;2023-08-07T06:15:22;98055.59;;;9.32;100.00
54936;BME280;40838;50.676;7.838;2023-08-07T06:17:48;98058.91;;;9.45;100.00
54936;BME280;40838;50.676;7.838;2023-08-07T06:20:17;98069.75;;;9.48;100.00
54936;BME280;40838;50.676;7.838;2023-08-07T06:22:43;98060.72;;;9.71;100.00
54936;BME280;40838;50.676;7.838;2023-08-07T06:25:10;98067.25;;;9.64;100.00
54936;BME280;40838;50.676;7.838;2023-08-07T06:27:36;98061.94;;;9.58;100.00
54936;BME280;40838;50.676;7.838;2023-08-07T06:30:05;98057.44;;;9.86;100.00
54936;BME280;40838;50.676;7.838;2023-08-07T06:32:32;98063.78;;;9.85;100.00
54936;BME280;40838;50.676;7.838;2023-08-07T06:34:58;98069.84;;;9.86;100.00
54936;BME280;40838;50.676;7.838;2023-08-07T06:40:06;98061.06;;;10.12;100.00
54936;BME280;40838;50.676;7.838;2023-08-07T06:45:23;98070.16;;;9.89;100.00
54936;BME280;40838;50.676;7.838;2023-08-07T06:47:50;98069.72;;;10.02;100.00
54936;BME280;40838;50.676;7.838;2023-08-07T06:50:17;98055.34;;;9.88;100.00
54936;BME280;40838;50.676;7.838;2023-08-07T06:52:44;98064.25;;;9.82;100.00
54936;BME280;40838;50.676;7.838;2023-08-07T06:55:12;98067.50;;;9.89;100.00
54936;BME280;40838;50.676;7.838;2023-08-07T06:57:43;98072.84;;;9.94;100.00
54936;BME280;40838;50.676;7.838;2023-08-07T07:00:10;98077.47;;;9.82;100.00
54936;BME280;40838;50.676;7.838;2023-08-07T07:02:42;98076.03;;;9.96;100.00
54936;BME280;40838;50.676;7.838;2023-08-07T07:05:09;98081.34;;;10.01;100.00
54936;BME280;40838;50.676;7.838;2023-08-07T07:07:36;98075.56;;;9.77;100.00
54936;BME280;40838;50.676;7.838;2023-08-07T07:10:02;98083.66;;;9.93;100.00
54936;BME280;40838;50.676;7.838;2023-08-07T07:12:30;98079.94;;;9.89;100.00
54936;BME280;40838;50.676;7.838;2023-08-07T07:14:56;98082.28;;;9.85;100.00
54936;BME280;40838;50.676;7.838;2023-08-07T07:17:37;98083.56;;;9.83;100.00
54936;BME280;40838;50.676;7.838;2023-08-07T07:20:08;98087.66;;;9.68;100.00
54936;BME280;40838;50.676;7.838;2023-08-07T07:22:36;98092.66;;;9.65;100.00
54936;BME280;40838;50.676;7.838;2023-08-07T07:25:13;98094.88;;;9.78;100.00
54936;BME280;40838;50.676;7.838;2023-08-07T07:27:39;98089.06;;;9.76;100.00
54936;BME280;40838;50.676;7.838;2023-08-07T07:30:06;98096.78;;;9.83;100.00
54936;BME280;40838;50.676;7.838;2023-08-07T07:32:33;98105.09;;;9.69;100.00
54936;BME280;40838;50.676;7.838;2023-08-07T07:35:01;98102.50;;;9.74;100.00
54936;BME280;40838;50.676;7.838;2023-08-07T07:37:31;98108.28;;;9.71;100.00
54936;BME280;40838;50.676;7.838;2023-08-07T07:39:59;98120.91;;;9.64;100.00
54936;BME280;40838;50.676;7.838;2023-08-07T07:42:26;98106.44;;;9.72;100.00
54936;BME280;40838;50.676;7.838;2023-08-07T07:45:03;98109.72;;;9.84;100.00
54936;BME280;40838;50.676;7.838;2023-08-07T07:47:29;98109.69;;;9.79;100.00
54936;BME280;40838;50.676;7.838;2023-08-07T07:50:04;98111.84;;;9.82;100.00
54936;BME280;40838;50.676;7.838;2023-08-07T07:52:40;98137.50;;;9.60;100.00
54936;BME280;40838;50.676;7.838;2023-08-07T07:55:11;98133.66;;;9.72;100.00
54936;BME280;40838;50.676;7.838;2023-08-07T07:57:39;98119.44;;;9.78;100.00
54936;BME280;40838;50.676;7.838;2023-08-07T08:00:06;98138.16;;;9.72;100.00
54936;BME280;40838;50.676;7.838;2023-08-07T08:02:37;98142.53;;;9.61;100.00
54936;BME280;40838;50.676;7.838;2023-08-07T08:05:03;98143.38;;;9.67;100.00
54936;BME280;40838;50.676;7.838;2023-08-07T08:07:30;98143.34;;;9.62;100.00
54936;BME280;40838;50.676;7.838;2023-08-07T08:10:01;98148.44;;;9.68;100.00
54936;BME280;40838;50.676;7.838;2023-08-07T08:12:27;98150.50;;;9.88;100.00
54936;BME280;40838;50.676;7.838;2023-08-07T08:14:56;98159.47;;;9.87;100.00
54936;BME280;40838;50.676;7.838;2023-08-07T08:17:22;98153.78;;;9.73;100.00
54936;BME280;40838;50.676;7.838;2023-08-07T08:19:49;98161.72;;;9.73;100.00
54936;BME280;40838;50.676;7.838;2023-08-07T08:22:17;98163.06;;;9.76;100.00
54936;BME280;40838;50.676;7.838;2023-08-07T08:24:45;98160.31;;;9.88;100.00
54936;BME280;40838;50.676;7.838;2023-08-07T08:27:14;98172.16;;;9.85;100.00
54936;BME280;40838;50.676;7.838;2023-08-07T08:29:42;98175.44;;;9.70;100.00
54936;BME280;40838;50.676;7.838;2023-08-07T08:32:10;98171.22;;;9.74;100.00
54936;BME280;40838;50.676;7.838;2023-08-07T08:34:37;98174.31;;;9.88;100.00
54936;BME280;40838;50.676;7.838;2023-08-07T08:37:04;98186.22;;;9.91;100.00
54936;BME280;40838;50.676;7.838;2023-08-07T08:39:31;98181.59;;;9.81;100.00
54936;BME280;40838;50.676;7.838;2023-08-07T08:41:57;98190.75;;;9.95;100.00
54936;BME280;40838;50.676;7.838;2023-08-07T08:44:26;98204.59;;;9.80;100.00
54936;BME280;40838;50.676;7.838;2023-08-07T08:47:12;98206.03;;;9.88;100.00
54936;BME280;40838;50.676;7.838;2023-08-07T08:49:41;98216.63;;;9.93;100.00
54936;BME280;40838;50.676;7.838;2023-08-07T08:52:12;98208.19;;;9.91;100.00
54936;BME280;40838;50.676;7.838;2023-08-07T08:54:39;98212.03;;;10.06;100.00
54936;BME280;40838;50.676;7.838;2023-08-07T08:57:07;98209.13;;;10.07;100.00
54936;BME280;40838;50.676;7.838;2023-08-07T08:59:43;98216.44;;;10.27;100.00
54936;BME280;40838;50.676;7.838;2023-08-07T09:02:10;98190.94;;;15.29;100.00
54936;BME280;40838;50.676;7.838;2023-08-07T09:04:37;98198.75;;;15.20;100.00
54936;BME280;40838;50.676;7.838;2023-08-07T09:07:05;98204.00;;;15.26;100.00
54936;BME280;40838;50.676;7.838;2023-08-07T09:09:32;98206.28;;;15.37;100.00
54936;BME280;40838;50.676;7.838;2023-08-07T09:11:59;98207.94;;;15.76;100.00
54936;BME280;40838;50.676;7.838;2023-08-07T09:14:27;98206.56;;;15.36;100.00
54936;BME280;40838;50.676;7.838;2023-08-07T09:16:58;98208.16;;;15.13;100.00
54936;BME280;40838;50.676;7.838;2023-08-07T09:19:33;98218.34;;;15.35;100.00
54936;BME280;40838;50.676;7.838;2023-08-07T09:22:00;98219.94;;;15.79;100.00
54936;BME280;40838;50.676;7.838;2023-08-07T09:24:27;98218.56;;;15.57;100.00
54936;BME280;40838;50.676;7.838;2023-08-07T09:26:53;98214.38;;;16.13;100.00
54936;BME280;40838;50.676;7.838;2023-08-07T09:29:31;98225.34;;;15.26;100.00
54936;BME280;40838;50.676;7.838;2023-08-07T09:32:02;98226.09;;;15.74;100.00
54936;BME280;40838;50.676;7.838;2023-08-07T09:34:37;98221.66;;;15.21;100.00
54936;BME280;40838;50.676;7.838;2023-08-07T09:37:06;98233.38;;;15.68;100.00
54936;BME280;40838;50.676;7.838;2023-08-07T09:39:33;98232.59;;;15.68;100.00
54936;BME280;40838;50.676;7.838;2023-08-07T09:42:12;98239.69;;;15.78;100.00
54936;BME280;40838;50.676;7.838;2023-08-07T09:44:52;98246.38;;;15.99;100.00
54936;BME280;40838;50.676;7.838;2023-08-07T09:47:21;98248.16;;;16.04;100.00
54936;BME280;40838;50.676;7.838;2023-08-07T09:52:30;98246.28;;;15.85;100.00
54936;BME280;40838;50.676;7.838;2023-08-07T09:55:01;98247.91;;;15.57;100.00
54936;BME280;40838;50.676;7.838;2023-08-07T09:57:28;98254.06;;;15.82;100.00
54936;BME280;40838;50.676;7.838;2023-08-07T09:59:56;98251.72;;;15.99;100.00
54936;BME280;40838;50.676;7.838;2023-08-07T10:05:08;98260.06;;;16.11;100.00
54936;BME280;40838;50.676;7.838;2023-08-07T10:07:36;98271.03;;;16.29;100.00
54936;BME280;40838;50.676;7.838;2023-08-07T10:10:03;98272.00;;;15.52;100.00
54936;BME280;40838;50.676;7.838;2023-08-07T10:12:30;98271.78;;;16.34;100.00
54936;BME280;40838;50.676;7.838;2023-08-07T10:14:57;98282.22;;;15.93;100.00
54936;BME280;40838;50.676;7.838;2023-08-07T10:17:28;98279.13;;;16.05;100.00
54936;BME280;40838;50.676;7.838;2023-08-07T10:19:55;98287.75;;;15.25;100.00
54936;BME280;40838;50.676;7.838;2023-08-07T10:22:34;98289.69;;;15.43;100.00
54936;BME280;40838;50.676;7.838;2023-08-07T10:25:02;98292.75;;;15.84;100.00
54936;BME280;40838;50.676;7.838;2023-08-07T10:27:29;98285.78;;;15.83;100.00
54936;BME280;40838;50.676;7.838;2023-08-07T10:29:55;98290.00;;;15.41;100.00
54936;BME280;40838;50.676;7.838;2023-08-07T10:32:25;98298.13;;;15.79;100.00
54936;BME280;40838;50.676;7.838;2023-08-07T10:34:52;98303.63;;;15.64;100.00
54936;BME280;40838;50.676;7.838;2023-08-07T10:37:31;98305.59;;;15.53;100.00
54936;BME280;40838;50.676;7.838;2023-08-07T10:40:02;98299.50;;;14.94;100.00
54936;BME280;40838;50.676;7.838;2023-08-07T10:42:55;98308.09;;;15.68;100.00
54936;BME280;40838;50.676;7.838;2023-08-07T10:45:22;98310.81;;;15.63;100.00
54936;BME280;40838;50.676;7.838;2023-08-07T10:47:58;98311.69;;;16.26;100.00
54936;BME280;40838;50.676;7.838;2023-08-07T10:50:28;98305.22;;;16.84;100.00
54936;BME280;40838;50.676;7.838;2023-08-07T10:53:36;98303.44;;;16.79;100.00
54936;BME280;40838;50.676;7.838;2023-08-07T10:56:09;98309.56;;;16.04;100.00
54936;BME280;40838;50.676;7.838;2023-08-07T10:58:37;98314.25;;;16.88;100.00
54936;BME280;40838;50.676;7.838;2023-08-07T11:01:16;98319.22;;;16.94;100.00
54936;BME280;40838;50.676;7.838;2023-08-07T11:03:44;98321.13;;;16.18;100.00
54936;BME280;40838;50.676;7.838;2023-08-07T11:06:11;98315.13;;;16.07;100.00
54936;BME280;40838;50.676;7.838;2023-08-07T11:08:38;98325.56;;;16.04;100.00
54936;BME280;40838;50.676;7.838;2023-08-07T11:11:05;98322.75;;;16.76;100.00
54936;BME280;40838;50.676;7.838;2023-08-07T11:13:44;98323.06;;;16.88;100.00
54936;BME280;40838;50.676;7.838;2023-08-07T11:16:11;98336.91;;;17.09;100.00
54936;BME280;40838;50.676;7.838;2023-08-07T11:18:38;98343.41;;;17.03;100.00
54936;BME280;40838;50.676;7.838;2023-08-07T11:21:12;98339.97;;;17.02;100.00
54936;BME280;40838;50.676;7.838;2023-08-07T11:23:39;98339.97;;;17.49;100.00
54936;BME280;40838;50.676;7.838;2023-08-07T11:26:05;98343.34;;;17.55;100.00
54936;BME280;40838;50.676;7.838;2023-08-07T11:28:37;98337.28;;;17.49;100.00
54936;BME280;40838;50.676;7.838;2023-08-07T11:31:24;98333.16;;;17.98;100.00
54936;BME280;40838;50.676;7.838;2023-08-07T11:33:51;98346.25;;;18.64;100.00
54936;BME280;40838;50.676;7.838;2023-08-07T11:36:18;98339.66;;;17.64;100.00
54936;BME280;40838;50.676;7.838;2023-08-07T11:38:44;98342.31;;;17.51;100.00
54936;BME280;40838;50.676;7.838;2023-08-07T11:41:13;98333.94;;;17.99;100.00
54936;BME280;40838;50.676;7.838;2023-08-07T11:43:41;98332.97;;;18.81;100.00
54936;BME280;40838;50.676;7.838;2023-08-07T11:46:08;98331.53;;;18.97;100.00
54936;BME280;40838;50.676;7.838;2023-08-07T11:48:39;98324.31;;;19.06;100.00
54936;BME280;40838;50.676;7.838;2023-08-07T11:51:07;98329.31;;;19.53;100.00
54936;BME280;40838;50.676;7.838;2023-08-07T11:53:34;98328.50;;;18.40;100.00
54936;BME280;40838;50.676;7.838;2023-08-07T11:56:02;98326.88;;;18.67;100.00
54936;BME280;40838;50.676;7.838;2023-08-07T11:58:35;98328.78;;;19.73;100.00
54936;BME280;40838;50.676;7.838;2023-08-07T12:01:12;98329.13;;;18.73;100.00
54936;BME280;40838;50.676;7.838;2023-08-07T12:03:41;98310.66;;;20.05;100.00
54936;BME280;40838;50.676;7.838;2023-08-07T12:06:10;98311.69;;;20.53;100.00
54936;BME280;40838;50.676;7.838;2023-08-07T12:08:37;98309.66;;;20.58;100.00
54936;BME280;40838;50.676;7.838;2023-08-07T12:11:06;98308.81;;;20.40;100.00
54936;BME280;40838;50.676;7.838;2023-08-07T12:13:36;98306.16;;;19.66;100.00
54936;BME280;40838;50.676;7.838;2023-08-07T12:16:14;98305.88;;;19.14;100.00
54936;BME280;40838;50.676;7.838;2023-08-07T12:18:49;98310.72;;;18.44;100.00
54936;BME280;40838;50.676;7.838;2023-08-07T12:21:18;98309.69;;;18.68;100.00
54936;BME280;40838;50.676;7.838;2023-08-07T12:23:56;98307.25;;;18.07;100.00
54936;BME280;40838;50.676;7.838;2023-08-07T12:26:24;98307.44;;;18.11;100.00
54936;BME280;40838;50.676;7.838;2023-08-07T12:28:51;98324.69;;;17.49;100.00
54936;BME280;40838;50.676;7.838;2023-08-07T12:31:19;98311.25;;;17.68;100.00
54936;BME280;40838;50.676;7.838;2023-08-07T12:33:46;98319.03;;;18.06;100.00
54936;BME280;40838;50.676;7.838;2023-08-07T12:36:27;98306.06;;;19.88;100.00
54936;BME280;40838;50.676;7.838;2023-08-07T12:38:54;98318.59;;;21.15;100.00
54936;BME280;40838;50.676;7.838;2023-08-07T12:41:21;98305.53;;;20.26;100.00
54936;BME280;40838;50.676;7.838;2023-08-07T12:44:03;98308.81;;;20.58;100.00
54936;BME280;40838;50.676;7.838;2023-08-07T12:46:31;98304.72;;;20.26;100.00
54936;BME280;40838;50.676;7.838;2023-08-07T12:48:57;98302.34;;;21.02;100.00
54936;BME280;40838;50.676;7.838;2023-08-07T12:51:25;98305.47;;;21.13;100.00
54936;BME280;40838;50.676;7.838;2023-08-07T12:53:55;98319.72;;;19.29;100.00
54936;BME280;40838;50.676;7.838;2023-08-07T12:56:27;98315.50;;;19.37;100.00
54936;BME280;40838;50.676;7.838;2023-08-07T13:01:44;98309.25;;;19.50;100.00
54936;BME280;40838;50.676;7.838;2023-08-07T13:04:10;98309.66;;;19.84;100.00
54936;BME280;40838;50.676;7.838;2023-08-07T13:06:40;98315.97;;;19.70;100.00
54936;BME280;40838;50.676;7.838;2023-08-07T13:09:17;98320.13;;;19.45;100.00
54936;BME280;40838;50.676;7.838;2023-08-07T13:11:47;98326.28;;;18.92;100.00
54936;BME280;40838;50.676;7.838;2023-08-07T13:14:15;98324.66;;;19.36;100.00
54936;BME280;40838;50.676;7.838;2023-08-07T13:16:43;98323.69;;;20.29;100.00
54936;BME280;40838;50.676;7.838;2023-08-07T13:19:11;98327.31;;;20.25;95.77
54936;BME280;40838;50.676;7.838;2023-08-07T13:21:37;98328.22;;;20.03;93.84
54936;BME280;40838;50.676;7.838;2023-08-07T13:24:05;98326.41;;;20.47;91.90
54936;BME280;40838;50.676;7.838;2023-08-07T13:26:32;98320.22;;;20.55;91.26
54936;BME280;40838;50.676;7.838;2023-08-07T13:28:58;98314.53;;;20.65;90.64
54936;BME280;40838;50.676;7.838;2023-08-07T13:31:40;98315.78;;;20.85;90.99
54936;BME280;40838;50.676;7.838;2023-08-07T13:34:10;98306.97;;;20.50;85.58
54936;BME280;40838;50.676;7.838;2023-08-07T13:36:37;98313.50;;;21.22;79.38
54936;BME280;40838;50.676;7.838;2023-08-07T13:39:04;98303.41;;;19.97;81.69
54936;BME280;40838;50.676;7.838;2023-08-07T13:41:31;98306.31;;;20.61;76.99